Time;durP1;ratioP1;P1;durP2;ratioP2;P2;SDS_P1;SDS_P2;PMS_P1;PMS_P2;Temp;Humidity;BMP_temperature;BMP_pressure;BME280_temperature;BME280_humidity;BME280_pressure;Samples;Min_cycle;Max_cycle;Signal;HPM_P1;HPM_P2
2022/05/19 00:02:15;;;;;;;7.18;5.63;;;19.60;99.90;;;;;;5070136;28;20032;-45
2022/05/19 00:04:41;;;;;;;5.78;5.13;;;19.60;99.90;;;;;;5070336;28;20031;-44
2022/05/19 00:07:08;;;;;;;6.40;5.88;;;19.50;99.90;;;;;;5070196;28;20029;-46
2022/05/19 00:09:34;;;;;;;6.68;5.45;;;19.50;99.90;;;;;;5070153;28;20050;-46
2022/05/19 00:12:03;;;;;;;6.45;5.18;;;19.40;99.90;;;;;;5069651;28;20095;-45
2022/05/19 00:14:28;;;;;;;6.22;5.63;;;19.40;99.90;;;;;;5070148;28;20028;-45
2022/05/19 00:16:56;;;;;;;6.07;5.53;;;19.40;99.90;;;;;;5070036;28;20637;-45
2022/05/19 00:19:22;;;;;;;5.45;4.95;;;19.40;99.90;;;;;;5069596;28;20016;-46
2022/05/19 00:21:48;;;;;;;5.82;5.43;;;19.30;99.90;;;;;;5069802;28;20074;-44
2022/05/19 00:24:15;;;;;;;6.15;5.53;;;19.30;99.90;;;;;;5070004;28;20094;-45
2022/05/19 00:26:40;;;;;;;6.60;4.20;;;19.30;99.90;;;;;;5070085;28;20033;-46
2022/05/19 00:29:06;;;;;;;6.47;5.13;;;19.20;99.90;;;;;;5068733;28;20031;-46
2022/05/19 00:31:32;;;;;;;5.70;5.05;;;19.20;99.90;;;;;;5069613;28;20043;-47
2022/05/19 00:33:58;;;;;;;5.45;4.95;;;19.20;99.90;;;;;;5069826;28;20032;-44
2022/05/19 00:36:25;;;;;;;6.07;5.47;;;19.10;99.90;;;;;;5069846;28;20391;-45
2022/05/19 00:38:51;;;;;;;6.43;5.82;;;19.10;99.90;;;;;;5085219;28;20021;-45
2022/05/19 00:41:17;;;;;;;5.60;5.15;;;19.10;99.90;;;;;;5067450;28;20393;-48
2022/05/19 00:43:45;;;;;;;7.22;5.07;;;19.10;99.90;;;;;;5068704;28;20024;-45
2022/05/19 00:46:21;;;;;;;5.43;5.00;;;19.00;99.90;;;;;;5069400;28;20028;-45
2022/05/19 00:48:48;;;;;;;7.25;5.47;;;19.00;99.90;;;;;;5061667;28;20028;-47
2022/05/19 00:51:16;;;;;;;5.65;5.20;;;18.90;99.90;;;;;;5061043;28;20078;-45
2022/05/19 00:53:52;;;;;;;5.78;4.90;;;18.90;99.90;;;;;;5069359;28;20375;-44
2022/05/19 00:56:34;;;;;;;6.72;6.10;;;18.90;99.90;;;;;;5068372;28;20076;-44
2022/05/19 00:59:24;;;;;;;6.40;5.82;;;18.90;99.90;;;;;;5072180;28;20032;-44
2022/05/19 01:01:50;;;;;;;5.82;5.25;;;18.80;99.90;;;;;;5071341;28;20538;-47
2022/05/19 01:04:24;;;;;;;6.75;5.78;;;18.80;99.90;;;;;;5072322;28;20028;-45
2022/05/19 01:06:54;;;;;;;6.38;5.47;;;18.70;99.90;;;;;;5073961;28;20435;-45
2022/05/19 01:09:20;;;;;;;5.95;5.45;;;18.70;99.90;;;;;;5073492;28;20039;-46
2022/05/19 01:11:51;;;;;;;6.35;5.30;;;18.70;99.90;;;;;;5073342;28;20037;-44
2022/05/19 01:14:17;;;;;;;5.93;5.30;;;18.60;99.90;;;;;;5073347;28;20128;-46
2022/05/19 01:16:43;;;;;;;6.03;5.53;;;18.60;99.90;;;;;;5073305;28;20107;-46
2022/05/19 01:19:29;;;;;;;6.07;5.53;;;18.50;99.90;;;;;;5071252;28;20112;-44
2022/05/19 01:22:00;;;;;;;7.78;6.10;;;18.50;99.90;;;;;;5072702;28;20049;-45
2022/05/19 01:24:40;;;;;;;7.32;5.50;;;18.50;99.90;;;;;;5073288;28;20032;-45
2022/05/19 01:27:06;;;;;;;5.70;5.20;;;18.50;99.90;;;;;;5073224;28;20514;-47
2022/05/19 01:29:31;;;;;;;6.43;5.82;;;18.50;99.90;;;;;;5073170;28;20040;-45
2022/05/19 01:32:00;;;;;;;7.20;6.18;;;18.40;99.90;;;;;;5072806;28;20421;-45
2022/05/19 01:34:33;;;;;;;6.75;6.05;;;18.40;99.90;;;;;;5073104;28;20021;-45
2022/05/19 01:36:59;;;;;;;5.82;5.32;;;18.40;99.90;;;;;;5073183;28;20393;-46
2022/05/19 01:39:31;;;;;;;6.68;5.93;;;18.40;99.90;;;;;;5073139;28;20465;-45
2022/05/19 01:42:19;;;;;;;7.00;6.13;;;18.40;99.90;;;;;;5071572;28;20021;-45
2022/05/19 01:45:03;;;;;;;6.07;5.38;;;18.30;99.90;;;;;;5073088;28;20100;-51
2022/05/19 01:47:29;;;;;;;7.38;5.40;;;18.30;99.90;;;;;;5072953;28;20070;-45
2022/05/19 01:50:06;;;;;;;6.32;5.60;;;18.30;99.90;;;;;;5071511;28;20024;-45
2022/05/19 01:52:40;;;;;;;6.07;5.47;;;18.30;99.90;;;;;;5072488;28;20020;-45
2022/05/19 01:55:14;;;;;;;6.75;6.05;;;18.20;99.90;;;;;;5072458;28;20082;-46
2022/05/19 01:57:55;;;;;;;6.78;5.97;;;18.20;99.90;;;;;;5072678;28;20024;-46
2022/05/19 02:00:26;;;;;;;6.55;5.43;;;18.20;99.90;;;;;;5072635;28;20024;-45
2022/05/19 02:03:21;;;;;;;6.78;6.15;;;18.10;99.90;;;;;;5072389;28;20031;-44
2022/05/19 02:06:02;;;;;;;6.15;5.57;;;18.10;99.90;;;;;;5072675;28;20040;-44
2022/05/19 02:08:33;;;;;;;6.60;5.90;;;18.10;99.90;;;;;;5071931;28;20037;-46
2022/05/19 02:11:00;;;;;;;7.28;5.75;;;18.10;99.90;;;;;;5072523;28;20039;-45
2022/05/19 02:13:28;;;;;;;5.43;5.00;;;18.00;99.90;;;;;;5072360;28;20087;-45
2022/05/19 02:15:55;;;;;;;6.68;5.85;;;18.00;99.90;;;;;;5072298;28;20108;-47
2022/05/19 02:18:24;;;;;;;7.05;5.45;;;18.00;99.90;;;;;;5072285;28;20024;-46
2022/05/19 02:20:53;;;;;;;5.97;5.38;;;18.00;99.90;;;;;;5072364;28;20017;-45
2022/05/19 02:23:19;;;;;;;6.75;6.15;;;17.90;99.90;;;;;;5071826;28;20025;-44
2022/05/19 02:25:50;;;;;;;6.60;5.88;;;17.90;99.90;;;;;;5072173;28;20021;-47
2022/05/19 02:28:37;;;;;;;6.20;5.68;;;17.90;99.90;;;;;;5072158;28;20032;-46
2022/05/19 02:31:02;;;;;;;7.03;6.25;;;17.90;99.90;;;;;;5070942;28;20020;-45
2022/05/19 02:33:28;;;;;;;7.45;6.78;;;17.90;99.90;;;;;;5071872;28;20044;-45
2022/05/19 02:35:54;;;;;;;6.72;5.95;;;17.80;99.90;;;;;;5071801;28;20056;-46
2022/05/19 02:38:20;;;;;;;5.70;5.30;;;17.80;99.90;;;;;;5071804;28;20051;-48
2022/05/19 02:40:47;;;;;;;6.75;6.13;;;17.80;99.90;;;;;;5070601;28;20028;-47
2022/05/19 02:43:14;;;;;;;7.10;6.50;;;17.70;99.90;;;;;;5071642;28;20020;-45
2022/05/19 02:45:40;;;;;;;10.32;6.00;;;17.80;99.90;;;;;;5071517;28;20085;-45
2022/05/19 02:48:07;;;;;;;6.93;6.30;;;17.70;99.90;;;;;;5071799;28;20028;-45
2022/05/19 02:50:33;;;;;;;6.60;5.95;;;17.70;99.90;;;;;;5071778;28;20017;-46
2022/05/19 02:53:00;;;;;;;6.93;6.20;;;17.70;99.90;;;;;;5069940;28;20029;-45
2022/05/19 02:55:25;;;;;;;6.88;6.00;;;17.70;99.90;;;;;;5071617;28;20024;-46
2022/05/19 02:57:51;;;;;;;6.68;6.07;;;17.60;99.90;;;;;;5071741;28;20020;-45
2022/05/19 03:00:20;;;;;;;7.57;5.65;;;17.60;99.90;;;;;;5070581;28;20025;-46
2022/05/19 03:02:47;;;;;;;6.53;5.93;;;17.60;99.90;;;;;;5070010;28;20032;-45
2022/05/19 03:05:17;;;;;;;5.95;5.30;;;17.60;99.90;;;;;;5070320;28;20032;-45
2022/05/19 03:07:43;;;;;;;6.53;5.95;;;17.50;99.90;;;;;;5069888;28;20043;-45
2022/05/19 03:10:09;;;;;;;6.32;5.80;;;17.50;99.90;;;;;;5071580;28;20028;-46
2022/05/19 03:12:34;;;;;;;7.78;6.30;;;17.50;99.90;;;;;;5070948;28;20055;-46
2022/05/19 03:15:00;;;;;;;7.55;5.93;;;17.50;99.90;;;;;;5071074;28;20032;-45
2022/05/19 03:17:26;;;;;;;7.15;5.57;;;17.50;99.90;;;;;;5069712;28;20074;-45
2022/05/19 03:19:53;;;;;;;6.97;6.28;;;17.50;99.90;;;;;;5070011;28;20099;-45
2022/05/19 03:22:19;;;;;;;7.47;6.78;;;17.50;99.90;;;;;;5070677;28;20017;-44
2022/05/19 03:24:44;;;;;;;6.90;6.30;;;17.40;99.90;;;;;;5070898;28;20111;-44
2022/05/19 03:27:10;;;;;;;7.45;6.32;;;17.40;99.90;;;;;;5069597;28;20107;-44
2022/05/19 03:29:36;;;;;;;6.22;5.72;;;17.40;99.90;;;;;;5070974;28;20032;-45
2022/05/19 03:32:01;;;;;;;7.35;6.20;;;17.40;99.90;;;;;;5070552;28;20042;-46
2022/05/19 03:34:27;;;;;;;6.80;5.85;;;17.40;99.90;;;;;;5070879;28;20063;-45
2022/05/19 03:36:53;;;;;;;6.30;5.65;;;17.40;99.90;;;;;;5070766;28;20032;-44
2022/05/19 03:39:18;;;;;;;7.18;6.32;;;17.40;99.90;;;;;;5070982;28;20020;-45
2022/05/19 03:41:44;;;;;;;6.32;5.72;;;17.40;99.90;;;;;;5070616;28;20557;-45
2022/05/19 03:44:10;;;;;;;7.25;6.05;;;17.40;99.90;;;;;;5070679;28;20516;-45
2022/05/19 03:46:36;;;;;;;6.35;5.75;;;17.40;99.90;;;;;;5070326;28;20055;-45
2022/05/19 03:49:02;;;;;;;6.35;5.78;;;17.40;99.90;;;;;;5069150;28;20482;-45
2022/05/19 03:51:30;;;;;;;7.43;6.60;;;17.40;99.90;;;;;;5068980;28;20060;-45
2022/05/19 03:53:56;;;;;;;7.28;6.55;;;17.40;99.90;;;;;;5070620;28;20119;-48
2022/05/19 03:56:23;;;;;;;7.18;6.22;;;17.40;99.90;;;;;;5069092;28;20028;-47
2022/05/19 03:58:49;;;;;;;9.98;6.07;;;17.30;99.90;;;;;;5070360;28;20486;-47
2022/05/19 04:01:16;;;;;;;8.60;6.90;;;17.40;99.90;;;;;;5068788;28;20100;-46
2022/05/19 04:03:41;;;;;;;8.25;6.05;;;17.30;99.90;;;;;;5068980;28;20112;-46
2022/05/19 04:06:08;;;;;;;7.15;6.45;;;17.30;99.90;;;;;;5070484;28;20028;-48
2022/05/19 04:08:33;;;;;;;6.70;6.10;;;17.30;99.90;;;;;;5068731;28;20498;-45
2022/05/19 04:10:59;;;;;;;8.68;5.75;;;17.40;99.90;;;;;;5070561;28;20043;-46
2022/05/19 04:13:25;;;;;;;6.97;6.38;;;17.40;99.90;;;;;;5070139;28;20021;-49
2022/05/19 04:15:51;;;;;;;7.28;6.57;;;17.40;99.90;;;;;;5069043;28;20025;-48
2022/05/19 04:18:16;;;;;;;6.95;6.32;;;17.40;99.90;;;;;;5070442;28;20094;-45
2022/05/19 04:20:43;;;;;;;6.90;6.20;;;17.40;99.90;;;;;;5070078;28;20031;-45
2022/05/19 04:23:09;;;;;;;7.72;6.95;;;17.40;99.90;;;;;;5069712;28;20016;-45
2022/05/19 04:25:35;;;;;;;7.55;6.88;;;17.40;99.90;;;;;;5068706;28;20028;-48
2022/05/19 04:28:01;;;;;;;7.95;6.70;;;17.40;99.90;;;;;;5070001;28;20027;-45
2022/05/19 04:30:27;;;;;;;6.68;6.07;;;17.40;99.90;;;;;;5069659;28;20385;-46
2022/05/19 04:32:53;;;;;;;6.55;6.00;;;17.50;99.90;;;;;;5070054;28;20078;-45
2022/05/19 04:35:18;;;;;;;6.63;6.13;;;17.50;99.90;;;;;;5069834;28;20577;-45
2022/05/19 04:37:44;;;;;;;6.60;5.97;;;17.60;99.90;;;;;;5069468;28;20121;-47
2022/05/19 04:40:11;;;;;;;7.65;7.03;;;17.60;99.90;;;;;;5069931;28;20060;-44
2022/05/19 04:42:37;;;;;;;7.05;6.25;;;17.60;99.90;;;;;;5069468;28;20166;-47
2022/05/19 04:45:03;;;;;;;7.38;6.70;;;17.70;99.90;;;;;;5069538;28;20031;-47
2022/05/19 04:47:29;;;;;;;7.10;6.20;;;17.70;99.90;;;;;;5070124;28;20031;-47
2022/05/19 04:49:55;;;;;;;7.75;6.97;;;17.70;99.90;;;;;;5070228;28;20103;-45
2022/05/19 04:52:21;;;;;;;7.13;6.43;;;17.80;99.90;;;;;;5070002;28;20036;-49
2022/05/19 04:54:47;;;;;;;7.95;6.60;;;17.90;99.90;;;;;;5070188;28;20524;-49
2022/05/19 04:57:12;;;;;;;7.05;5.95;;;17.90;99.90;;;;;;5069728;28;20036;-46
2022/05/19 04:59:39;;;;;;;7.53;6.65;;;18.00;99.90;;;;;;5069593;28;20032;-48
2022/05/19 05:02:05;;;;;;;7.60;6.90;;;18.00;99.90;;;;;;5069538;28;20514;-44
2022/05/19 05:04:31;;;;;;;6.75;6.22;;;18.10;99.90;;;;;;5069806;28;20032;-45
2022/05/19 05:06:57;;;;;;;6.68;6.07;;;18.20;99.90;;;;;;5069778;28;20125;-46
2022/05/19 05:09:23;;;;;;;6.60;5.80;;;18.30;99.90;;;;;;5069531;28;20036;-47
2022/05/19 05:11:49;;;;;;;7.30;6.47;;;18.30;99.90;;;;;;5069373;28;20024;-46
2022/05/19 05:14:16;;;;;;;7.10;6.50;;;18.40;99.90;;;;;;5069618;28;20029;-47
2022/05/19 05:16:43;;;;;;;8.23;7.15;;;18.40;99.90;;;;;;5069640;28;20039;-47
2022/05/19 05:19:08;;;;;;;7.22;6.40;;;18.50;99.90;;;;;;5069219;28;20479;-45
2022/05/19 05:21:34;;;;;;;7.50;6.70;;;18.60;99.90;;;;;;5069407;28;20086;-47
2022/05/19 05:24:00;;;;;;;7.45;6.70;;;18.60;99.90;;;;;;5068175;28;20025;-45
2022/05/19 05:26:25;;;;;;;7.20;6.57;;;18.70;99.90;;;;;;5069522;28;20078;-46
2022/05/19 05:28:51;;;;;;;7.95;6.55;;;18.80;99.90;;;;;;5069344;28;20035;-47
2022/05/19 05:31:16;;;;;;;7.82;6.10;;;18.90;99.90;;;;;;5069650;28;20035;-49
2022/05/19 05:33:42;;;;;;;7.80;6.53;;;18.90;99.90;;;;;;5069633;28;20025;-47
2022/05/19 05:36:07;;;;;;;9.65;7.07;;;18.90;99.90;;;;;;5068199;28;20036;-48
2022/05/19 05:38:33;;;;;;;7.72;6.85;;;19.00;99.90;;;;;;5069430;28;20035;-47
2022/05/19 05:41:01;;;;;;;7.20;6.50;;;19.00;99.90;;;;;;5069515;28;20079;-48
2022/05/19 05:43:27;;;;;;;7.20;6.50;;;19.10;99.90;;;;;;5070681;28;20017;-51
2022/05/19 05:45:53;;;;;;;7.50;6.78;;;19.20;99.90;;;;;;5072766;28;20039;-47
2022/05/19 05:48:19;;;;;;;6.85;6.35;;;19.30;99.90;;;;;;5072930;28;20032;-49
2022/05/19 05:50:45;;;;;;;7.47;6.85;;;19.40;99.90;;;;;;5071509;28;20071;-45
2022/05/19 05:53:11;;;;;;;7.15;6.45;;;19.50;99.90;;;;;;5072701;28;20060;-46
2022/05/19 05:55:39;;;;;;;9.80;6.70;;;19.70;99.90;;;;;;5072909;28;20028;-45
2022/05/19 05:58:06;;;;;;;7.32;6.30;;;19.80;99.90;;;;;;5072817;28;20027;-45
2022/05/19 06:00:32;;;;;;;7.57;6.65;;;20.00;99.90;;;;;;5072960;28;20020;-50
2022/05/19 06:02:58;;;;;;;7.15;6.55;;;20.00;99.90;;;;;;5072700;28;20021;-45
2022/05/19 06:05:24;;;;;;;7.38;6.32;;;20.10;99.90;;;;;;5071460;28;20081;-49
2022/05/19 06:07:50;;;;;;;7.35;6.70;;;20.20;99.90;;;;;;5072612;28;20088;-46
2022/05/19 06:10:16;;;;;;;6.85;6.25;;;20.30;99.90;;;;;;5072906;28;20037;-50
2022/05/19 06:12:42;;;;;;;6.63;6.03;;;20.40;99.90;;;;;;5072528;28;20023;-45
2022/05/19 06:15:10;;;;;;;7.65;6.22;;;20.60;99.90;;;;;;5072473;28;20028;-46
2022/05/19 06:17:35;;;;;;;8.13;5.88;;;20.70;99.90;;;;;;5072394;28;20070;-48
2022/05/19 06:20:01;;;;;;;7.88;6.20;;;20.90;99.90;;;;;;5071895;28;20025;-46
2022/05/19 06:22:26;;;;;;;6.38;5.78;;;21.00;99.90;;;;;;5071961;28;20346;-47
2022/05/19 06:24:52;;;;;;;6.10;5.50;;;21.10;99.90;;;;;;5070866;28;20071;-45
2022/05/19 06:27:18;;;;;;;5.95;5.22;;;21.20;99.90;;;;;;5072180;28;20051;-46
2022/05/19 06:29:44;;;;;;;6.57;5.68;;;21.30;99.90;;;;;;5072327;28;20372;-48
2022/05/19 06:32:10;;;;;;;7.35;5.22;;;21.40;99.90;;;;;;5070722;28;20024;-49
2022/05/19 06:34:36;;;;;;;6.05;5.60;;;21.50;99.90;;;;;;5070741;28;20074;-48
2022/05/19 06:37:02;;;;;;;6.07;5.47;;;21.60;99.90;;;;;;5072070;28;20024;-47
2022/05/19 06:39:29;;;;;;;6.10;5.60;;;21.80;99.90;;;;;;5071918;28;20012;-45
2022/05/19 06:42:00;;;;;;;8.90;5.53;;;21.90;99.90;;;;;;5071757;28;20032;-50
2022/05/19 06:44:37;;;;;;;7.88;5.78;;;22.00;99.90;;;;;;5072167;28;20478;-46
2022/05/19 06:47:10;;;;;;;7.40;5.57;;;22.30;99.90;;;;;;5072246;28;20089;-49
2022/05/19 06:49:36;;;;;;;5.63;5.20;;;22.50;99.90;;;;;;5072183;28;20073;-46
2022/05/19 06:52:02;;;;;;;7.25;5.13;;;22.70;99.90;;;;;;5071607;28;20040;-47
2022/05/19 06:54:28;;;;;;;6.07;5.47;;;22.90;99.90;;;;;;5071766;28;20025;-46
2022/05/19 06:56:53;;;;;;;8.30;5.40;;;23.10;99.90;;;;;;5071745;28;20036;-46
2022/05/19 06:59:19;;;;;;;5.65;5.15;;;23.40;99.90;;;;;;5071578;28;20016;-47
2022/05/19 07:01:45;;;;;;;6.35;4.68;;;23.50;99.90;;;;;;5071508;28;20142;-49
2022/05/19 07:04:11;;;;;;;5.28;4.53;;;23.70;99.90;;;;;;5070332;28;20104;-48
2022/05/19 07:06:37;;;;;;;5.32;4.82;;;23.90;99.90;;;;;;5071662;28;20203;-48
2022/05/19 07:09:02;;;;;;;6.45;5.15;;;24.00;99.90;;;;;;5071476;28;20760;-46
2022/05/19 07:11:28;;;;;;;7.38;4.72;;;24.10;99.90;;;;;;5071272;28;20025;-49
2022/05/19 07:13:56;;;;;;;6.55;5.15;;;24.20;99.90;;;;;;5071255;28;20021;-49
2022/05/19 07:16:22;;;;;;;6.45;4.55;;;24.40;99.90;;;;;;5071354;28;20474;-47
2022/05/19 07:18:49;;;;;;;5.03;4.50;;;24.60;99.90;;;;;;5071329;28;20025;-46
2022/05/19 07:21:18;;;;;;;6.80;4.85;;;24.70;99.90;;;;;;5069270;28;20371;-47
2022/05/19 07:23:44;;;;;;;6.15;4.45;;;25.00;99.90;;;;;;5071633;28;20394;-49
2022/05/19 07:26:10;;;;;;;5.00;4.25;;;25.20;99.90;;;;;;5071474;28;20111;-47
2022/05/19 07:28:36;;;;;;;5.65;4.28;;;25.50;99.90;;;;;;5071336;28;20032;-48
2022/05/19 07:31:02;;;;;;;5.25;3.88;;;25.60;99.90;;;;;;5071116;28;20024;-46
2022/05/19 07:33:28;;;;;;;6.00;4.55;;;25.90;99.90;;;;;;5069482;28;20551;-47
2022/05/19 07:35:54;;;;;;;5.50;4.15;;;26.10;99.90;;;;;;5070815;28;20039;-48
2022/05/19 07:38:20;;;;;;;5.22;3.90;;;26.30;99.90;;;;;;5070827;28;20116;-48
2022/05/19 07:40:46;;;;;;;4.80;3.60;;;26.50;99.90;;;;;;5069517;28;20112;-47
2022/05/19 07:45:57;;;;;;;5.68;3.85;;;26.80;99.90;;;;;;5070712;28;20128;-47
2022/05/19 07:48:22;;;;;;;6.20;4.25;;;27.00;99.90;;;;;;5070601;28;20039;-47
2022/05/19 07:50:48;;;;;;;6.75;3.92;;;27.20;99.90;;;;;;5070823;28;20120;-47
2022/05/19 07:53:13;;;;;;;4.25;3.47;;;27.30;98.90;;;;;;5070387;28;20571;-47
2022/05/19 07:55:39;;;;;;;6.25;3.50;;;27.50;98.60;;;;;;5070518;28;20401;-48
2022/05/19 07:58:04;;;;;;;6.75;4.32;;;27.70;98.70;;;;;;5070576;28;20498;-47
2022/05/19 08:00:30;;;;;;;3.67;3.38;;;27.70;99.90;;;;;;5070529;28;20024;-47
2022/05/19 08:02:56;;;;;;;4.82;3.70;;;27.90;99.90;;;;;;5070443;28;20070;-47
2022/05/19 08:05:21;;;;;;;6.72;4.10;;;27.90;96.70;;;;;;5070324;28;20077;-46
2022/05/19 08:07:47;;;;;;;3.85;3.08;;;28.00;98.10;;;;;;5070322;28;20401;-48
2022/05/19 08:10:24;;;;;;;3.92;3.33;;;28.10;97.00;;;;;;5070513;28;20035;-45
2022/05/19 08:15:54;;;;;;;4.13;3.20;;;28.40;94.10;;;;;;5008043;28;20037;-47
2022/05/19 08:18:30;;;;;;;5.85;3.65;;;28.20;94.70;;;;;;5057384;28;20033;-53
2022/05/19 08:21:03;;;;;;;3.60;3.30;;;28.00;95.60;;;;;;5070179;28;20078;-46
2022/05/19 08:23:32;;;;;;;3.75;3.45;;;27.80;95.80;;;;;;5069869;28;20029;-50
2022/05/19 08:25:58;;;;;;;3.40;3.10;;;27.70;95.00;;;;;;5070015;28;20021;-52
2022/05/19 08:28:30;;;;;;;3.20;2.63;;;27.90;96.00;;;;;;5058574;28;20078;-46
2022/05/19 08:31:02;;;;;;;4.20;3.00;;;28.10;94.40;;;;;;5061566;28;20020;-48
2022/05/19 08:33:28;;;;;;;3.95;3.17;;;28.40;92.60;;;;;;5070163;28;20021;-48
2022/05/19 08:35:54;;;;;;;3.28;2.97;;;28.70;94.00;;;;;;5068735;28;20052;-48
2022/05/19 08:38:21;;;;;;;3.22;2.63;;;29.00;92.40;;;;;;5069968;28;20017;-47
2022/05/19 08:41:00;;;;;;;2.60;2.40;;;29.10;90.00;;;;;;5068588;28;20020;-47
2022/05/19 08:43:32;;;;;;;4.07;2.85;;;29.30;90.10;;;;;;5069958;28;20386;-48
2022/05/19 08:46:01;;;;;;;5.72;2.72;;;29.50;88.20;;;;;;5070281;28;20025;-47
2022/05/19 08:48:28;;;;;;;2.80;2.55;;;29.60;85.80;;;;;;5069871;28;20032;-48
2022/05/19 08:51:01;;;;;;;3.25;2.95;;;29.60;84.70;;;;;;5068343;28;20036;-48
2022/05/19 08:53:34;;;;;;;3.20;2.90;;;29.40;86.00;;;;;;5069296;28;20623;-46
2022/05/19 08:56:19;;;;;;;3.30;2.63;;;29.10;84.20;;;;;;5069851;28;20029;-47
2022/05/19 08:59:08;;;;;;;3.03;2.83;;;28.70;88.00;;;;;;5069549;28;20025;-47
2022/05/19 09:01:53;;;;;;;2.85;2.47;;;28.50;88.40;;;;;;5069521;28;20031;-46
2022/05/19 09:04:44;;;;;;;5.10;2.83;;;28.30;89.00;;;;;;5069956;28;20032;-46
2022/05/19 09:10:37;;;;;;;4.13;2.78;;;28.30;86.60;;;;;;5068820;28;20079;-48
2022/05/19 09:13:21;;;;;;;3.08;2.85;;;28.60;90.00;;;;;;5069514;28;20025;-46
2022/05/19 09:15:47;;;;;;;2.85;2.65;;;28.90;86.60;;;;;;5069620;28;20025;-46
2022/05/19 09:18:15;;;;;;;3.75;2.70;;;29.00;82.50;;;;;;5071402;28;20020;-47
2022/05/19 09:20:53;;;;;;;6.72;2.78;;;29.10;84.90;;;;;;5073576;28;20386;-46
2022/05/19 09:23:19;;;;;;;5.43;3.20;;;29.20;85.00;;;;;;5071981;28;20033;-46
2022/05/19 09:25:50;;;;;;;3.72;2.70;;;29.30;85.60;;;;;;5073431;28;20024;-49
2022/05/19 09:28:17;;;;;;;2.97;2.70;;;29.50;81.80;;;;;;5073251;28;20070;-49
2022/05/19 09:30:50;;;;;;;3.00;2.70;;;29.50;83.30;;;;;;5073388;28;20064;-47
2022/05/19 09:33:18;;;;;;;2.92;2.35;;;29.40;84.90;;;;;;5073149;28;20036;-47
2022/05/19 09:35:49;;;;;;;6.03;2.65;;;29.30;81.70;;;;;;5073144;28;20024;-52
2022/05/19 09:38:32;;;;;;;2.67;2.45;;;29.10;83.80;;;;;;5071907;28;20489;-47
2022/05/19 09:41:08;;;;;;;3.40;2.90;;;29.00;81.50;;;;;;5073083;28;20112;-47
2022/05/19 09:43:36;;;;;;;4.95;2.55;;;29.00;85.80;;;;;;5072711;28;20491;-47
2022/05/19 09:46:09;;;;;;;2.60;2.40;;;28.90;82.20;;;;;;5071688;28;20032;-49
2022/05/19 09:48:43;;;;;;;3.22;2.60;;;29.00;86.40;;;;;;5073086;28;20048;-47
2022/05/19 09:51:12;;;;;;;7.18;2.50;;;29.10;82.60;;;;;;5072859;28;20021;-46
2022/05/19 09:53:40;;;;;;;3.42;3.03;;;29.00;84.90;;;;;;5073010;28;20119;-46
2022/05/19 09:56:10;;;;;;;2.88;2.67;;;29.20;84.50;;;;;;5072957;28;20030;-47
2022/05/19 09:58:41;;;;;;;2.78;2.35;;;29.20;81.00;;;;;;5073229;28;20027;-47
2022/05/19 10:01:34;;;;;;;3.08;2.63;;;29.30;84.70;;;;;;5072802;28;20039;-47
2022/05/19 10:04:02;;;;;;;3.28;2.67;;;29.40;82.90;;;;;;5071723;28;20044;-46
2022/05/19 10:06:36;;;;;;;3.00;2.35;;;29.50;81.70;;;;;;5072206;28;20028;-47
2022/05/19 10:09:09;;;;;;;2.72;2.53;;;29.50;81.40;;;;;;5072341;28;20557;-46
2022/05/19 10:11:34;;;;;;;2.95;2.75;;;29.50;81.30;;;;;;5072224;28;20640;-47
2022/05/19 10:14:03;;;;;;;2.70;2.50;;;29.30;77.70;;;;;;5071058;28;20024;-52
2022/05/19 10:16:42;;;;;;;3.42;2.60;;;29.30;79.70;;;;;;5072280;28;20032;-47
2022/05/19 10:19:14;;;;;;;5.40;2.78;;;29.10;78.30;;;;;;5072126;28;20066;-46
2022/05/19 10:22:04;;;;;;;3.35;3.00;;;28.80;80.80;;;;;;5072360;28;20060;-48
2022/05/19 10:24:43;;;;;;;2.70;2.50;;;28.80;79.30;;;;;;5072134;28;20021;-50
2022/05/19 10:31:19;;;;;;;2.58;2.20;;;28.80;83.50;;;;;;5071639;28;20036;-50
2022/05/19 10:33:56;;;;;;;3.25;2.95;;;28.70;80.70;;;;;;5053379;28;20498;-47
2022/05/19 10:36:33;;;;;;;2.83;2.47;;;28.60;81.50;;;;;;5072359;28;20497;-49
2022/05/19 10:39:06;;;;;;;3.38;2.70;;;28.40;82.40;;;;;;5072334;28;20138;-46
2022/05/19 10:41:47;;;;;;;3.63;2.38;;;28.30;80.10;;;;;;5071829;28;20394;-50
2022/05/19 10:44:46;;;;;;;5.05;3.17;;;28.20;80.80;;;;;;5071767;28;20023;-49
2022/05/19 10:47:14;;;;;;;4.10;2.50;;;28.00;82.00;;;;;;5070604;28;20021;-51
2022/05/19 10:50:12;;;;;;;2.75;2.50;;;27.90;81.60;;;;;;5071762;28;20111;-47
2022/05/19 10:52:55;;;;;;;3.20;2.88;;;27.90;82.60;;;;;;5071738;28;20032;-48
2022/05/19 10:55:32;;;;;;;4.13;2.97;;;27.80;82.80;;;;;;5071824;28;20044;-52
2022/05/19 10:58:32;;;;;;;2.88;2.63;;;27.90;82.80;;;;;;5071524;28;20028;-47
2022/05/19 11:01:19;;;;;;;3.42;3.05;;;27.90;80.10;;;;;;5042446;28;20032;-47
2022/05/19 11:03:57;;;;;;;4.15;2.55;;;27.90;85.90;;;;;;5071562;28;20024;-47
2022/05/19 11:06:41;;;;;;;3.00;2.70;;;27.80;80.00;;;;;;5071532;28;20114;-48
2022/05/19 11:09:33;;;;;;;2.88;2.60;;;27.70;82.20;;;;;;5071287;28;20036;-47
2022/05/19 11:12:25;;;;;;;3.03;2.38;;;27.70;82.10;;;;;;5071322;28;20071;-49
2022/05/19 11:15:16;;;;;;;2.88;2.55;;;27.80;82.80;;;;;;5071503;28;20032;-51
2022/05/19 11:18:03;;;;;;;3.95;2.90;;;27.90;86.00;;;;;;5071273;28;20032;-50
2022/05/19 11:20:54;;;;;;;4.05;3.33;;;28.20;84.30;;;;;;5071052;28;20055;-50
2022/05/19 11:23:33;;;;;;;4.03;2.95;;;28.40;80.90;;;;;;5041955;28;20033;-52
2022/05/19 11:26:28;;;;;;;4.57;2.72;;;28.60;82.00;;;;;;5071027;28;20035;-49
2022/05/19 11:29:06;;;;;;;3.15;2.88;;;28.60;84.20;;;;;;5039202;28;20086;-47
2022/05/19 11:32:17;;;;;;;4.70;3.00;;;28.60;84.50;;;;;;5070643;28;20032;-51
2022/05/19 11:35:31;;;;;;;3.47;2.55;;;28.50;81.80;;;;;;5071030;28;20021;-50
2022/05/19 11:38:21;;;;;;;3.15;2.40;;;28.50;82.10;;;;;;5057085;28;20045;-49
2022/05/19 11:41:14;;;;;;;2.70;2.47;;;28.60;82.40;;;;;;5070158;28;20024;-50
2022/05/19 11:43:52;;;;;;;3.30;2.95;;;28.60;80.60;;;;;;5070488;28;20043;-49
2022/05/19 11:46:23;;;;;;;3.65;2.65;;;28.60;81.80;;;;;;5070895;28;20029;-48
2022/05/19 11:55:27;;;;;;;2.47;2.35;;;28.70;82.20;;;;;;5070882;28;20027;-53
2022/05/19 11:58:09;;;;;;;4.47;3.08;;;28.80;80.10;;;;;;5070073;28;20046;-50
2022/05/19 12:00:41;;;;;;;2.80;2.53;;;28.70;78.00;;;;;;5069054;28;20031;-48
2022/05/19 12:03:15;;;;;;;3.13;2.83;;;28.60;79.40;;;;;;5069075;28;20021;-48
2022/05/19 12:05:50;;;;;;;3.25;3.00;;;28.60;81.00;;;;;;5070680;28;20031;-48
2022/05/19 12:08:39;;;;;;;3.03;2.72;;;28.70;82.00;;;;;;5070351;28;20052;-49
2022/05/19 12:11:22;;;;;;;3.17;2.88;;;28.70;81.00;;;;;;5070290;28;20024;-49
2022/05/19 12:14:08;;;;;;;4.72;2.75;;;28.60;79.90;;;;;;5070389;28;20035;-48
2022/05/19 12:17:01;;;;;;;5.38;3.22;;;28.60;77.00;;;;;;5070507;28;20024;-47
2022/05/19 12:19:48;;;;;;;3.70;3.38;;;28.80;78.80;;;;;;5070122;28;20090;-47
2022/05/19 12:22:43;;;;;;;3.47;3.03;;;28.70;80.20;;;;;;5070159;28;20035;-50
2022/05/19 12:25:25;;;;;;;6.15;2.92;;;28.80;81.80;;;;;;5069002;28;20021;-48
2022/05/19 12:28:05;;;;;;;3.83;3.45;;;28.90;80.40;;;;;;5070248;28;20428;-53
2022/05/19 12:33:29;;;;;;;3.13;2.92;;;29.30;77.70;;;;;;5070189;28;20051;-49
2022/05/19 12:36:01;;;;;;;6.57;3.13;;;29.30;77.90;;;;;;5069703;28;20126;-51
2022/05/19 12:38:37;;;;;;;3.17;2.97;;;29.40;77.60;;;;;;5069945;28;20020;-48
2022/05/19 12:41:33;;;;;;;4.00;3.10;;;29.60;79.20;;;;;;5070057;28;20025;-52
2022/05/19 12:44:40;;;;;;;3.95;3.20;;;29.70;74.40;;;;;;5069573;28;20107;-49
2022/05/19 12:47:21;;;;;;;3.17;2.92;;;29.70;77.60;;;;;;5070003;28;20398;-52
2022/05/19 12:50:08;;;;;;;3.10;2.90;;;29.70;76.20;;;;;;5069796;28;20508;-50
2022/05/19 12:52:58;;;;;;;6.78;3.22;;;29.60;75.40;;;;;;5071649;28;20127;-49
2022/05/19 12:55:23;;;;;;;2.70;2.50;;;29.70;79.30;;;;;;5073879;28;20036;-49
2022/05/19 12:57:54;;;;;;;5.43;3.83;;;29.70;75.80;;;;;;5073969;28;20020;-48
2022/05/19 13:00:34;;;;;;;3.50;3.20;;;29.80;76.10;;;;;;5074052;28;20023;-50
2022/05/19 13:03:11;;;;;;;3.25;2.90;;;29.70;76.20;;;;;;5073746;28;20016;-51
2022/05/19 13:05:50;;;;;;;4.40;2.70;;;29.60;78.50;;;;;;5074206;28;20111;-50
2022/05/19 13:08:31;;;;;;;4.65;3.50;;;29.70;77.90;;;;;;5074025;28;20044;-50
2022/05/19 13:10:59;;;;;;;4.53;3.28;;;29.60;81.20;;;;;;5073849;28;20029;-52
2022/05/19 13:13:40;;;;;;;2.97;2.67;;;29.80;79.60;;;;;;5073774;28;20055;-50
2022/05/19 13:16:24;;;;;;;3.60;2.80;;;30.00;74.80;;;;;;5073855;28;20032;-49
2022/05/19 13:18:55;;;;;;;6.55;3.25;;;29.90;77.70;;;;;;5073847;28;20486;-52
2022/05/19 13:21:29;;;;;;;3.22;2.92;;;29.90;76.00;;;;;;5073701;28;20117;-48
2022/05/19 13:23:54;;;;;;;4.47;2.65;;;29.70;76.10;;;;;;5073527;28;20025;-52
2022/05/19 13:26:25;;;;;;;4.03;2.80;;;29.50;75.90;;;;;;5073488;28;20050;-51
2022/05/19 13:32:11;;;;;;;3.30;3.00;;;29.70;79.50;;;;;;5073838;28;20035;-50
2022/05/19 13:34:41;;;;;;;3.97;2.88;;;29.60;77.10;;;;;;5073400;28;20028;-52
2022/05/19 13:37:07;;;;;;;3.38;2.97;;;29.60;77.10;;;;;;5073204;28;20036;-51